METAR Data
IDs: Format: Raw Decoded Include TAF

Data at: 1449 UTC 12 Dec 2018

PANA 121356Z AUTO 17005KT 10SM CLR M18/M19 A2921 RMK AO2 SLP890 T11781189 FZRANO
PANA 121156Z AUTO 24004KT 10SM CLR M15/M17 A2921 RMK AO2 SLP889 T11501167 11089 21150 53011 FZRANO
PANA 121056Z AUTO 24005KT 10SM CLR M14/M16 A2919 RMK AO2 SLP885 T11441161 FZRANO
PANA 120956Z AUTO 23004KT 10SM CLR M14/M16 A2918 RMK AO2 SLP882 T11441156 FZRANO
PANA 120856Z AUTO 27004KT 10SM CLR M13/M14 A2917 RMK AO2 SLP878 T11281139 410671128 51013 FZRANO
PANA 120756Z AUTO 25009KT 10SM CLR M12/M13 A2916 RMK AO2 SLP875 T11171133 FZRANO
PANA 120656Z AUTO 25009KT 10SM CLR M11/M13 A2915 RMK AO2 SLP870 T11111128 FZRANO
PANA 120556Z AUTO 26009KT 10SM OVC080 M09/M11 A2914 RMK AO2 SLP866 60000 T10891106 11083 21111 53006 FZRANO
PANA 120456Z AUTO 25011KT 10SM BKN070 OVC090 M08/M11 A2913 RMK AO2 SNE14 SLP863 P0000 T10831106 FZRANO
PANA 120356Z AUTO 24013KT 8SM -SN FEW025 SCT049 OVC060 M08/M10 A2912 RMK AO2 SLP861 P0000 T10831100 FZRANO
PANA 120256Z AUTO 24012KT 7SM -SN OVC046 M09/M11 A2912 RMK AO2 SNB42 SLP859 P0000 60000 T10891106 56003 FZRANO
PANA 120156Z AUTO 23013KT 10SM BKN070 M11/M12 A2912 RMK AO2 SLP860 T11061122 FZRANO
PANA 120056Z AUTO 23011KT 10SM CLR M11/M12 A2912 RMK AO2 SLP861 T11061122 FZRANO
PANA 112356Z AUTO 23011KT 10SM CLR M09/M12 A2913 RMK AO2 SLP862 60000 T10891117 11089 21106 51006 FZRANO
PANA 112256Z AUTO 24011KT 10SM CLR M09/M12 A2912 RMK AO2 SLP861 T10891117 FZRANO
PANA 112056Z AUTO 24010KT 10SM CLR M10/M12 A2911 RMK AO2 SLP856 60000 T11001117 51018 FZRANO
PANA 111956Z AUTO 25011KT 10SM CLR M10/M12 A2910 RMK AO2 SNE1857 SLP854 T11001117 FZRANO
PANA 111856Z AUTO 25012KT 9SM -SN CLR M11/M12 A2908 RMK AO2 SNB16 SLP846 P0000 T11061122 FZRANO
PANA 111756Z AUTO 26010KT 10SM CLR M10/M12 A2906 RMK AO2 SLP839 60000 T11001122 11067 21100 53021 FZRANO
PANA 111656Z AUTO 28011KT 10SM BKN060 M07/M10 A2903 RMK AO2 SLP831 T10721100 FZRANO
PANA 111556Z AUTO 28013G20KT 10SM OVC048 M07/M09 A2901 RMK AO2 SLP823 T10721089 FZRANO
PANA 111456Z AUTO 27014KT 10SM SCT035 OVC043 M07/M09 A2899 RMK AO2 SLP817 60000 T10721094 51025 FZRANO
PANA 111356Z AUTO 27010KT 10SM OVC039 M07/M09 A2897 RMK AO2 SNE01 SLP810 P0000 T10721089 FZRANO
PANA 111156Z AUTO 29013G18KT 3SM -SN BR OVC034 M07/M08 A2892 RMK AO2 SLP792 P0000 60000 T10721083 11072 21078 51021 FZRANO
PANA 111127Z AUTO 29015G20KT 2 1/2SM -SN BR OVC032 M07/M08 A2891 RMK AO2 P0000 FZRANO
PANA 111056Z AUTO 29012G20KT 3SM -SN BR SCT027 OVC034 M07/M08 A2890 RMK AO2 SLP784 P0000 T10721083 FZRANO
PANA 111019Z AUTO 29015G19KT 3SM -SN BR SCT020 OVC025 M07/M08 A2887 RMK AO2 P0000 FZRANO
PANA 110956Z AUTO 30017G22KT 2 1/2SM -SN BR OVC016 M07/M08 A2886 RMK AO2 PK WND 31028/0857 SLP771 P0000 T10721083 FZRANO
PANA 110953Z AUTO 30015G21KT 2 1/2SM -SN BR OVC016 M07/M08 A2886 RMK AO2 PK WND 31028/0857 P0000 FZRANO
PANA 110903Z AUTO 30020G28KT 1 3/4SM -SN BR OVC016 M07/M08 A2883 RMK AO2 PK WND 31028/0857 P0000 FZRANO
PANA 110856Z AUTO 30019G27KT 1 1/2SM -SN BR OVC014 M07/M08 A2882 RMK AO2 PK WND 30031/0833 SLP759 P0000 60000 T10721083 410671083 53033 FZRANO
PANA 110840Z AUTO 31021G31KT 1 1/4SM -SN BR OVC014 M07/M08 A2880 RMK AO2 PK WND 30031/0833 P0000 FZRANO
PANA 110756Z AUTO 31019G26KT 2SM -SN BR OVC019 M07/M08 A2879 RMK AO2 PK WND 31027/0741 SLP747 P0000 T10721083 FZRANO
PANA 110656Z AUTO 31019G26KT 1 1/2SM -SN BR OVC017 M08/M09 A2875 RMK AO2 PK WND 32027/0622 SLP736 P0000 T10781089 FZRANO
PANA 110645Z AUTO 31018G26KT 1 3/4SM -SN BR BKN020 OVC025 M08/M09 A2875 RMK AO2 PK WND 32027/0622 P0000 FZRANO
PANA 110616Z AUTO 32018G25KT 2SM -SN BR OVC022 M07/M08 A2873 RMK AO2 PK WND 32027/0601 P0000 FZRANO
PANA 110556Z AUTO 32018G25KT 1 3/4SM -SN BR OVC024 M07/M08 A2872 RMK AO2 SLP725 P0000 60000 T10721083 11067 21072 51016 FZRANO
PANA 110553Z AUTO 32018G24KT 1 3/4SM -SN BR OVC024 M07/M08 A2872 RMK AO2 P0000 FZRANO
PANA 110356Z AUTO 33016G22KT 2SM -SN BR OVC022 M07/M08 A2868 RMK AO2 SLP710 P0000 T10671078 FZRANO
PANA 110319Z AUTO 33017G23KT 2SM -SN BR BKN018 BKN027 OVC033 M07/M08 A2867 RMK AO2 P0000 FZRANO
PANA 110309Z AUTO 33017G22KT 3SM -SN BR SCT022 OVC029 M07/M08 A2867 RMK AO2 P0000 FZRANO
PANA 110256Z AUTO 33016G22KT 2SM -SN BR BKN024 OVC031 M07/M08 A2866 RMK AO2 SLP704 P0000 60000 T10671078 53003 FZRANO